Aberdeen, SD

4:48 PM CST on December 06, 2016 (GMT -0600)
St. Mary's Church | | Change Station
Active Advisory: Winter Weather Advisory Active Notice: Local Storm Report

Elev 1302 ft 45.47 °N, 98.48 °W | Updated 50 seconds ago

Overcast
Overcast
12.6 °F
Feels Like -3 °F
N
13.9
Wind Variable Wind from NW

Today
High -- | Low -- °F
--% Chance of Precip.
Yesterday
High -- | Low -- °F
Precip. -- in
Pressure 29.93 in
Visibility 10.0 miles
Clouds Mostly Cloudy 7000 ft
Overcast 11000 ft
Windchill -3 °F
Dew Point 6 °F
Humidity 73%
Rainfall 0.00 in
Snow Depth Not available.
7:59 AM 4:50 PM
Waxing Crescent, 46% visible
METAR KABR 062153Z AUTO 29023G37KT 10SM BKN070 OVC110 M10/M16 A2986 RMK AO2 PK WND 30040/2126 SNB28E37 SLP134 P0000 T11001161
Pressure 29.93 in
Visibility 10.0 miles
Clouds Mostly Cloudy 7000 ft
Overcast 11000 ft
Windchill -3 °F
Dew Point 6 °F
Humidity 73%
Rainfall 0.00 in
Snow Depth Not available.
7:59 AM 4:50 PM
Waxing Crescent, 46% visible
METAR KABR 062153Z AUTO 29023G37KT 10SM BKN070 OVC110 M10/M16 A2986 RMK AO2 PK WND 30040/2126 SNB28E37 SLP134 P0000 T11001161

10-Day Weather Forecast

Almanac

Astronomy

Dec. 06, 2016 Rise Set
Actual Time
Civil Twilight
Nautical Twilight
Astronomical Twilight
Moon
Length of Visible Light
Length of Day
Tomorrow will be .
, % of the Moon is Illuminated

Today's Extremes

State Highs State Lows

Community

WunderPhotos

Upload Photos

1,956,042 photos uploaded!

WunderBlog® & News

Nearby

Air Quality

  Air Quality AQ Index Pollutant
Not available.

Snow Depth

Station Depth Elevation

Earthquake Activity

City Distance Mag. Time & Date
Minimum magnitude displayed is 2.5.

Coastal Water Temperatures

Place Temperature

Stations

Nearby Weather Stations

Station Location Temp. Windchill Dew Point Humidity Wind Precip. Elev Updated Type
                   

Watches & Warnings

Winter Weather Advisory
Issued: 1:31 PM MST Dec. 6, 2016 – National Weather Service

... Winter Weather Advisory now in effect until 9 PM CST /8 PM
MST/ this evening...

* timing... light snow will diminish through this evening.

* Snow accumulations... no additional accumulation is expected.

* Winds / visibility... sustained northwest winds of 25 to 35 mph
with gusts to 45 mph will cause areas of blowing and drifting
snow. Areas of poor visibility below one half mile in blowing
snow are expected.

* Impacts... near blizzard conditions in blowing snow will reduce
visibility and create hazardous driving conditions. Don't
overdrive the conditions! Slow down and give yourself extra time
to reach your destination if travel is necessary this evening.

Precautionary/preparedness actions...

A Winter Weather Advisory for blowing snow means that
visibilities will be limited due to strong winds blowing snow
around. Use caution when traveling... especially in open areas.